createdAt,value
2019-04-16T00:00:26.506Z,80.20
2019-04-16T00:02:58.727Z,81.00
2019-04-16T00:05:28.966Z,81.10
2019-04-16T00:08:19.373Z,82.10
2019-04-16T00:10:40.035Z,82.70
2019-04-16T00:13:12.647Z,83.10
2019-04-16T00:15:42.021Z,83.80
2019-04-16T00:18:11.578Z,84.10
2019-04-16T00:20:41.786Z,84.90
2019-04-16T00:23:11.887Z,86.00
2019-04-16T00:25:40.354Z,87.80
2019-04-16T00:28:08.842Z,87.80
2019-04-16T00:30:37.342Z,88.20
2019-04-16T00:33:07.615Z,89.10
2019-04-16T00:35:36.067Z,89.20
2019-04-16T00:38:04.627Z,89.20
2019-04-16T00:40:33.159Z,90.30
2019-04-16T00:43:22.501Z,90.50
2019-04-16T00:45:50.963Z,90.60
2019-04-16T00:48:19.458Z,90.50
2019-04-16T00:50:47.919Z,90.60
2019-04-16T00:53:16.407Z,90.70
2019-04-16T00:55:45.724Z,90.60
2019-04-16T00:58:14.386Z,90.60
2019-04-16T01:00:43.127Z,90.50
2019-04-16T01:03:11.766Z,90.70
2019-04-16T01:05:40.660Z,90.50
2019-04-16T01:08:09.203Z,91.60
2019-04-16T01:10:37.708Z,91.30
2019-04-16T01:13:06.239Z,91.50
2019-04-16T01:15:34.740Z,91.20
2019-04-16T01:18:04.592Z,91.20
2019-04-16T01:20:33.574Z,91.30
2019-04-16T01:23:02.094Z,91.60
2019-04-16T01:25:30.638Z,91.00
2019-04-16T01:28:01.211Z,91.40
2019-04-16T01:30:31.446Z,91.40
2019-04-16T01:33:07.130Z,91.20
2019-04-16T01:35:37.374Z,91.60
2019-04-16T01:38:16.778Z,91.90
2019-04-16T01:40:47.365Z,92.40
2019-04-16T01:43:17.197Z,90.80
2019-04-16T01:45:45.655Z,91.40
2019-04-16T01:48:14.146Z,90.60
2019-04-16T01:50:43.791Z,90.60
2019-04-16T01:53:12.804Z,90.90
2019-04-16T01:55:42.535Z,90.40
2019-04-16T01:58:11.340Z,90.40
2019-04-16T02:00:40.032Z,90.40
2019-04-16T02:03:08.662Z,90.60
2019-04-16T02:05:37.387Z,91.10
2019-04-16T02:08:05.923Z,90.70
2019-04-16T02:10:35.447Z,91.20
2019-04-16T02:13:05.080Z,91.30
2019-04-16T02:15:33.617Z,92.50
2019-04-16T02:18:02.195Z,92.80
2019-04-16T02:20:30.659Z,93.00
2019-04-16T02:22:59.147Z,93.10
2019-04-16T02:25:27.645Z,93.00
2019-04-16T02:27:57.001Z,93.70
2019-04-16T02:30:26.288Z,94.00
2019-04-16T02:32:54.780Z,93.80
2019-04-16T02:35:23.319Z,93.80
2019-04-16T02:37:51.889Z,94.20
2019-04-16T02:40:20.351Z,94.40
2019-04-16T02:42:49.058Z,94.40
2019-04-16T02:45:22.751Z,94.20
2019-04-16T02:47:48.009Z,94.00
2019-04-16T02:50:30.716Z,93.50
2019-04-16T02:52:58.825Z,94.90
2019-04-16T02:55:29.079Z,94.70
2019-04-16T02:58:02.528Z,94.50
2019-04-16T03:00:41.788Z,94.60
2019-04-16T03:03:18.283Z,94.90
2019-04-16T03:05:48.921Z,93.40
2019-04-16T03:08:17.906Z,93.40
2019-04-16T03:10:46.759Z,92.50
2019-04-16T03:13:15.646Z,92.60
2019-04-16T03:16:05.699Z,92.20
2019-04-16T03:18:34.906Z,93.00
2019-04-16T03:21:03.966Z,92.50
2019-04-16T03:23:36.503Z,94.00
2019-04-16T03:26:03.386Z,93.30
2019-04-16T03:28:32.385Z,92.70
2019-04-16T03:31:01.109Z,92.80
2019-04-16T03:33:29.721Z,92.80
2019-04-16T03:35:58.616Z,92.40
2019-04-16T03:38:27.635Z,92.10
2019-04-16T03:40:56.739Z,92.30
2019-04-16T03:43:25.824Z,92.20
2019-04-16T03:45:54.722Z,92.20
2019-04-16T03:48:24.474Z,92.80
2019-04-16T03:50:53.619Z,93.00
2019-04-16T03:53:22.610Z,94.40
2019-04-16T03:55:51.219Z,94.70
2019-04-16T03:58:20.282Z,95.20
2019-04-16T04:00:49.391Z,94.90
2019-04-16T04:03:38.979Z,96.80
2019-04-16T04:06:08.327Z,97.00
2019-04-16T04:08:37.140Z,97.30
2019-04-16T04:11:09.205Z,97.50
2019-04-16T04:13:36.251Z,97.20
2019-04-16T04:16:04.965Z,97.30
2019-04-16T04:18:33.974Z,97.20
2019-04-16T04:21:02.970Z,97.60
2019-04-16T04:23:32.018Z,98.40
2019-04-16T04:26:00.730Z,98.10
2019-04-16T04:28:29.413Z,98.20
2019-04-16T04:31:00.973Z,98.00
2019-04-16T04:33:41.562Z,97.70
2019-04-16T04:36:10.231Z,97.60
2019-04-16T04:38:39.650Z,97.30
2019-04-16T04:41:09.001Z,96.70
2019-04-16T04:43:38.093Z,96.90
2019-04-16T04:46:13.011Z,97.00
2019-04-16T04:48:37.482Z,97.10
2019-04-16T04:51:08.152Z,96.70
2019-04-16T04:53:36.931Z,96.30
2019-04-16T04:56:06.030Z,95.90
2019-04-16T04:58:34.874Z,96.30
2019-04-16T05:01:03.664Z,96.50
2019-04-16T05:03:47.422Z,96.70
2019-04-16T05:06:26.772Z,97.00
2019-04-16T05:08:57.651Z,97.80
2019-04-16T05:11:25.282Z,98.20
2019-04-16T05:13:56.487Z,98.30
2019-04-16T05:16:24.477Z,98.20
2019-04-16T05:18:53.502Z,98.60
2019-04-16T05:21:22.607Z,96.90
2019-04-16T05:23:54.494Z,94.90
2019-04-16T05:26:22.182Z,93.10
2019-04-16T05:28:50.926Z,90.00
2019-04-16T05:31:24.396Z,85.60
2019-04-16T05:33:50.237Z,80.70
2019-04-16T05:36:21.031Z,81.60
2019-04-16T05:38:49.611Z,81.70
2019-04-16T05:41:21.977Z,84.80
2019-04-16T05:43:48.747Z,84.90
2019-04-16T05:46:17.462Z,85.70
2019-04-16T05:48:46.336Z,90.20
2019-04-16T05:51:15.204Z,88.40
2019-04-16T05:53:45.594Z,89.70
2019-04-16T05:56:20.198Z,90.30
2019-04-16T05:58:49.494Z,87.90
2019-04-16T06:01:22.661Z,85.20
2019-04-16T06:03:53.471Z,81.50
2019-04-16T06:06:22.468Z,78.00
2019-04-16T06:08:51.244Z,77.70
2019-04-16T06:11:28.054Z,77.30
2019-04-16T06:13:52.410Z,76.10
2019-04-16T06:16:25.935Z,76.00
2019-04-16T06:18:56.396Z,74.40
2019-04-16T06:21:43.208Z,73.40
2019-04-16T06:24:15.871Z,69.80
2019-04-16T06:26:49.107Z,69.00
2019-04-16T06:29:22.393Z,64.80
2019-04-16T06:32:05.326Z,62.50
2019-04-16T06:34:55.263Z,60.90
2019-04-16T06:37:40.522Z,61.40
2019-04-16T06:40:31.746Z,61.80
2019-04-16T06:43:05.507Z,59.50
2019-04-16T06:45:36.987Z,60.50
2019-04-16T06:48:12.739Z,59.60
2019-04-16T06:50:56.898Z,58.40
2019-04-16T06:53:30.019Z,55.00
2019-04-16T06:55:59.348Z,52.70
2019-04-16T06:58:30.030Z,51.00
2019-04-16T07:01:06.869Z,49.20
2019-04-16T07:03:35.739Z,48.50
2019-04-16T07:06:06.402Z,46.70
2019-04-16T07:08:55.295Z,41.40
2019-04-16T07:11:25.095Z,37.80
2019-04-16T07:13:55.050Z,32.40
2019-04-16T07:16:27.918Z,29.80
2019-04-16T07:18:54.580Z,32.40
2019-04-16T07:21:23.676Z,35.30
2019-04-16T07:23:56.873Z,36.20
2019-04-16T07:26:23.432Z,36.40
2019-04-16T07:28:59.949Z,35.20
2019-04-16T07:31:34.468Z,35.80
2019-04-16T07:34:02.723Z,34.70
2019-04-16T07:36:35.802Z,33.80
2019-04-16T07:39:29.866Z,34.80
2019-04-16T07:42:08.416Z,34.80
2019-04-16T07:44:42.156Z,33.20
2019-04-16T07:47:19.997Z,32.40
2019-04-16T07:49:55.938Z,32.10
2019-04-16T07:52:26.122Z,31.30
2019-04-16T07:55:15.037Z,30.30
2019-04-16T07:57:43.697Z,30.80
2019-04-16T08:00:13.942Z,30.40
2019-04-16T08:02:42.822Z,30.90
2019-04-16T08:05:11.546Z,31.40
2019-04-16T08:07:40.671Z,31.70
2019-04-16T08:10:09.631Z,31.90
2019-04-16T08:12:42.098Z,31.40
2019-04-16T08:15:14.617Z,31.00
2019-04-16T08:17:41.066Z,30.00
2019-04-16T08:20:10.183Z,28.50
2019-04-16T08:22:40.053Z,28.40
2019-04-16T08:25:08.989Z,29.00
2019-04-16T08:27:37.707Z,29.30
2019-04-16T08:30:09.293Z,28.20
2019-04-16T08:32:37.954Z,28.20
2019-04-16T08:35:07.590Z,30.10
2019-04-16T08:37:48.282Z,30.90
2019-04-16T08:40:08.798Z,28.10
2019-04-16T08:42:44.391Z,27.60
2019-04-16T08:45:08.980Z,27.50
2019-04-16T08:47:37.946Z,27.30
2019-04-16T08:50:07.402Z,27.40
2019-04-16T08:52:38.515Z,25.70
2019-04-16T08:55:06.714Z,25.70
2019-04-16T08:57:35.600Z,26.00
2019-04-16T09:00:08.640Z,27.30
2019-04-16T09:02:39.135Z,27.00
2019-04-16T09:05:11.422Z,25.90
2019-04-16T09:07:41.636Z,25.60
2019-04-16T09:10:21.655Z,25.40
2019-04-16T09:13:02.303Z,24.90
2019-04-16T09:15:20.910Z,26.50
2019-04-16T09:17:51.033Z,26.70
2019-04-16T09:20:23.253Z,25.40
2019-04-16T09:22:53.603Z,24.80
2019-04-16T09:25:24.104Z,24.00
2019-04-16T09:27:54.775Z,25.10
2019-04-16T09:30:25.162Z,25.70
2019-04-16T09:33:07.322Z,26.80
2019-04-16T09:35:37.650Z,28.80
2019-04-16T09:38:19.830Z,29.10
2019-04-16T09:41:05.863Z,28.10
2019-04-16T09:43:40.414Z,28.50
2019-04-16T09:46:11.764Z,27.80
2019-04-16T09:48:40.410Z,27.10
2019-04-16T09:51:10.083Z,27.10
2019-04-16T09:53:40.427Z,27.30
2019-04-16T09:56:28.909Z,27.30
2019-04-16T09:59:00.584Z,25.10
2019-04-16T10:01:31.083Z,25.50
2019-04-16T10:04:00.634Z,27.10
2019-04-16T10:06:29.338Z,28.00
2019-04-16T10:08:58.063Z,29.20
2019-04-16T10:11:26.895Z,27.80
2019-04-16T10:13:55.656Z,27.00
2019-04-16T10:16:26.267Z,26.50
2019-04-16T10:18:55.395Z,27.10
2019-04-16T10:21:24.168Z,26.90
2019-04-16T10:24:00.206Z,28.00
2019-04-16T10:26:29.325Z,28.30
2019-04-16T10:29:00.055Z,28.00
2019-04-16T10:31:28.982Z,27.20
2019-04-16T10:33:57.976Z,27.00
2019-04-16T10:36:26.569Z,26.10
2019-04-16T10:38:59.909Z,26.50
2019-04-16T10:41:46.736Z,27.70
2019-04-16T10:44:19.893Z,27.80
2019-04-16T10:46:50.653Z,27.30
2019-04-16T10:49:27.230Z,26.80
2019-04-16T10:52:00.930Z,25.80
2019-04-16T10:54:49.260Z,26.20
2019-04-16T10:57:38.396Z,25.00
2019-04-16T11:00:16.134Z,23.90
2019-04-16T11:02:46.583Z,23.60
2019-04-16T11:05:20.231Z,23.30
2019-04-16T11:07:50.699Z,23.00
2019-04-16T11:10:20.023Z,22.40
2019-04-16T11:12:48.997Z,22.80
2019-04-16T11:15:19.365Z,22.70
2019-04-16T11:17:48.236Z,22.60
2019-04-16T11:20:17.737Z,23.30
2019-04-16T11:22:46.939Z,23.40
2019-04-16T11:25:15.646Z,24.00
2019-04-16T11:27:44.294Z,25.60
2019-04-16T11:30:28.103Z,25.90
2019-04-16T11:32:57.175Z,26.90
2019-04-16T11:35:26.263Z,27.00
2019-04-16T11:37:55.060Z,27.00
2019-04-16T11:40:24.046Z,27.20
2019-04-16T11:42:52.882Z,26.30
2019-04-16T11:45:21.614Z,26.80
2019-04-16T11:47:50.605Z,27.20
2019-04-16T11:50:19.623Z,29.10
2019-04-16T11:52:48.296Z,29.80
2019-04-16T11:55:17.386Z,28.10
2019-04-16T11:57:46.126Z,28.40
2019-04-16T12:00:19.854Z,29.90
2019-04-16T12:02:56.187Z,32.20
2019-04-16T12:05:26.490Z,34.60
2019-04-16T12:08:03.141Z,36.10
2019-04-16T12:10:50.000Z,35.10
2019-04-16T12:13:20.222Z,36.00
2019-04-16T12:16:05.811Z,36.20
2019-04-16T12:18:53.150Z,36.00
2019-04-16T12:21:42.182Z,36.30
2019-04-16T12:24:12.580Z,36.40
2019-04-16T12:26:45.704Z,36.10
2019-04-16T12:29:34.816Z,37.80
2019-04-16T12:32:05.717Z,37.40
2019-04-16T12:34:51.086Z,37.10
2019-04-16T12:37:27.317Z,36.70
2019-04-16T12:39:57.814Z,37.40
2019-04-16T12:42:28.680Z,37.40
2019-04-16T12:44:58.947Z,38.20
2019-04-16T12:47:32.048Z,38.60
2019-04-16T12:50:18.951Z,38.50
2019-04-16T12:53:06.007Z,39.00
2019-04-16T12:55:39.431Z,38.20
2019-04-16T12:58:28.082Z,37.90
2019-04-16T13:01:04.689Z,37.50
2019-04-16T13:03:46.496Z,39.20
2019-04-16T13:06:34.846Z,40.20
2019-04-16T13:09:21.391Z,40.00
2019-04-16T13:11:51.849Z,40.40
2019-04-16T13:14:22.147Z,40.90
2019-04-16T13:17:04.577Z,41.30
2019-04-16T13:19:34.935Z,41.70
2019-04-16T13:22:05.564Z,41.70
2019-04-16T13:24:52.388Z,41.50
2019-04-16T13:27:22.603Z,40.70
2019-04-16T13:29:51.257Z,40.90
2019-04-16T13:32:20.378Z,41.20
2019-04-16T13:34:49.475Z,42.10
2019-04-16T13:37:18.320Z,42.00
2019-04-16T13:39:54.471Z,41.50
2019-04-16T13:42:23.127Z,41.80
2019-04-16T13:44:53.415Z,40.80
2019-04-16T13:47:22.333Z,40.40
2019-04-16T13:50:10.811Z,40.60
2019-04-16T13:52:40.154Z,40.60
2019-04-16T13:55:27.391Z,40.60
2019-04-16T13:58:03.861Z,41.60
2019-04-16T14:00:36.367Z,40.80
2019-04-16T14:03:06.286Z,41.30
2019-04-16T14:05:38.371Z,41.20
2019-04-16T14:08:05.502Z,41.60
2019-04-16T14:10:34.226Z,42.10
2019-04-16T14:13:03.471Z,43.10
2019-04-16T14:15:39.050Z,44.00
2019-04-16T14:18:05.222Z,43.40
2019-04-16T14:20:34.022Z,43.40
2019-04-16T14:23:02.968Z,43.50
2019-04-16T14:25:31.703Z,43.30
2019-04-16T14:28:03.182Z,44.70
2019-04-16T14:30:32.844Z,44.30
2019-04-16T14:33:01.493Z,44.50
2019-04-16T14:35:34.019Z,45.10
2019-04-16T14:38:02.295Z,45.10
2019-04-16T14:40:31.117Z,45.10
2019-04-16T14:42:59.970Z,46.00
2019-04-16T14:45:43.561Z,47.20
2019-04-16T14:48:07.620Z,48.90
2019-04-16T14:50:34.559Z,49.10
2019-04-16T14:53:03.273Z,49.70
2019-04-16T14:55:33.602Z,49.80
2019-04-16T14:58:04.295Z,50.60
2019-04-16T15:00:37.338Z,49.80
2019-04-16T15:03:07.800Z,50.00
2019-04-16T15:05:44.686Z,49.90
2019-04-16T15:08:16.014Z,48.70
2019-04-16T15:10:52.108Z,49.80
2019-04-16T15:13:31.721Z,50.40
2019-04-16T15:16:11.062Z,50.80
2019-04-16T15:18:43.100Z,51.40
2019-04-16T15:21:16.401Z,51.90
2019-04-16T15:24:03.274Z,52.00
2019-04-16T15:26:36.399Z,52.30
2019-04-16T15:29:10.091Z,53.00
2019-04-16T15:31:43.594Z,51.50
2019-04-16T15:34:14.356Z,50.90
2019-04-16T15:36:49.868Z,52.20
2019-04-16T15:39:17.322Z,52.20
2019-04-16T15:44:42.891Z,52.50
2019-04-16T15:47:32.567Z,52.60
2019-04-16T15:50:06.490Z,52.10
2019-04-16T15:52:53.250Z,51.90
2019-04-16T15:55:29.385Z,51.80
2019-04-16T15:58:11.800Z,52.20
2019-04-16T16:00:51.354Z,52.20
2019-04-16T16:03:38.167Z,52.20
2019-04-16T16:06:27.799Z,52.00
2019-04-16T16:08:58.512Z,52.40
2019-04-16T16:11:31.673Z,51.40
2019-04-16T16:14:01.602Z,52.00
2019-04-16T16:16:41.515Z,52.50
2019-04-16T16:19:00.948Z,51.70
2019-04-16T16:21:29.722Z,51.00
2019-04-16T16:23:58.374Z,52.40
2019-04-16T16:26:27.106Z,51.70
2019-04-16T16:28:56.350Z,52.50
2019-04-16T16:31:25.074Z,52.40
2019-04-16T16:33:54.077Z,52.30
2019-04-16T16:36:23.078Z,52.70
2019-04-16T16:38:52.019Z,52.40
2019-04-16T16:41:21.014Z,52.60
2019-04-16T16:43:49.785Z,53.80
2019-04-16T16:46:21.450Z,54.10
2019-04-16T16:48:52.022Z,54.90
2019-04-16T16:51:23.020Z,55.40
2019-04-16T16:54:05.656Z,55.80
2019-04-16T16:56:45.143Z,56.20
2019-04-16T16:59:27.660Z,56.30
2019-04-16T17:01:58.342Z,57.00
2019-04-16T17:04:28.698Z,57.30
2019-04-16T17:06:57.459Z,58.20
2019-04-16T17:09:30.374Z,58.90
2019-04-16T17:11:59.033Z,60.00
2019-04-16T17:14:27.870Z,62.50
2019-04-16T17:17:11.349Z,64.60
2019-04-16T17:19:26.926Z,66.70
2019-04-16T17:21:55.635Z,68.10
2019-04-16T17:24:24.523Z,69.70
2019-04-16T17:26:53.204Z,71.00
2019-04-16T17:29:22.050Z,72.30
2019-04-16T17:31:51.543Z,72.80
2019-04-16T17:34:20.642Z,74.10
2019-04-16T17:36:49.437Z,74.70
2019-04-16T17:39:19.822Z,75.50
2019-04-16T17:41:55.263Z,76.40
2019-04-16T17:44:28.214Z,76.80
2019-04-16T17:46:58.622Z,77.90
2019-04-16T17:49:31.833Z,78.40
2019-04-16T17:52:14.515Z,79.30
2019-04-16T17:54:56.448Z,79.90
2019-04-16T17:57:42.526Z,81.20
2019-04-16T18:00:11.287Z,81.70
2019-04-16T18:02:57.034Z,82.60
2019-04-16T18:05:27.394Z,83.00
2019-04-16T18:08:06.599Z,83.70
2019-04-16T18:10:53.959Z,83.20
2019-04-16T18:13:24.290Z,83.60
2019-04-16T18:15:55.077Z,83.80
2019-04-16T18:18:25.425Z,84.70
2019-04-16T18:21:03.307Z,85.20
2019-04-16T18:23:50.323Z,85.90
2019-04-16T18:26:30.437Z,86.40
2019-04-16T18:29:03.618Z,87.30
2019-04-16T18:31:57.558Z,87.40
2019-04-16T18:34:31.375Z,88.00
2019-04-16T18:37:18.019Z,88.60
2019-04-16T18:39:51.390Z,89.30
2019-04-16T18:42:21.881Z,89.40
2019-04-16T18:45:04.485Z,89.70
2019-04-16T18:47:43.857Z,89.90
2019-04-16T18:50:36.672Z,90.30
2019-04-16T18:53:09.648Z,90.40
2019-04-16T18:55:35.894Z,90.50
2019-04-16T18:58:05.077Z,90.30
2019-04-16T19:00:47.829Z,90.50
2019-04-16T19:03:16.576Z,90.70
2019-04-16T19:05:45.328Z,90.60
2019-04-16T19:08:14.095Z,90.70
2019-04-16T19:10:42.983Z,90.70
2019-04-16T19:13:12.220Z,90.80
2019-04-16T19:15:41.285Z,90.50
2019-04-16T19:18:19.777Z,90.30
2019-04-16T19:20:40.907Z,90.10
2019-04-16T19:23:09.676Z,90.10
2019-04-16T19:25:38.506Z,90.20
2019-04-16T19:28:07.109Z,90.20
2019-04-16T19:30:36.150Z,90.40
2019-04-16T19:33:04.869Z,90.60
2019-04-16T19:35:33.586Z,90.60
2019-04-16T19:38:06.214Z,91.00
2019-04-16T19:40:32.687Z,91.10
2019-04-16T19:43:03.185Z,91.30
2019-04-16T19:45:31.875Z,91.50
2019-04-16T19:48:01.753Z,91.90
2019-04-16T19:50:36.254Z,92.10
2019-04-16T19:53:01.276Z,92.50
2019-04-16T19:55:30.026Z,93.10
2019-04-16T19:57:59.351Z,94.30
2019-04-16T20:00:28.386Z,94.40
2019-04-16T20:02:57.353Z,95.10
2019-04-16T20:05:28.797Z,95.10
2019-04-16T20:07:56.446Z,95.40
2019-04-16T20:10:25.122Z,95.40
2019-04-16T20:12:57.869Z,95.70
2019-04-16T20:15:24.802Z,95.90
2019-04-16T20:17:53.867Z,96.10
2019-04-16T20:20:22.967Z,95.90
2019-04-16T20:22:51.640Z,96.00
2019-04-16T20:25:20.495Z,96.00
2019-04-16T20:27:49.535Z,95.90
2019-04-16T20:30:23.041Z,96.50
2019-04-16T20:32:49.343Z,96.20
2019-04-16T20:35:19.082Z,96.30
2019-04-16T20:37:50.508Z,96.50
2019-04-16T20:40:18.736Z,96.70
2019-04-16T20:42:47.891Z,96.80
2019-04-16T20:45:17.625Z,96.90
2019-04-16T20:47:46.203Z,97.10
2019-04-16T20:50:14.918Z,97.30
2019-04-16T20:52:43.665Z,97.40
2019-04-16T20:55:15.660Z,97.50
2019-04-16T20:57:43.402Z,97.60
2019-04-16T21:00:14.113Z,97.70
2019-04-16T21:02:42.999Z,97.90
2019-04-16T21:05:21.995Z,98.00
2019-04-16T21:07:43.911Z,98.00
2019-04-16T21:10:12.471Z,98.30
2019-04-16T21:12:45.010Z,98.20
2019-04-16T21:15:11.757Z,98.20
2019-04-16T21:17:40.542Z,98.40
2019-04-16T21:20:09.319Z,98.30
2019-04-16T21:22:37.927Z,98.30
2019-04-16T21:25:27.695Z,98.50
2019-04-16T21:28:00.708Z,98.40
2019-04-16T21:30:29.455Z,98.10
2019-04-16T21:32:59.738Z,98.20
2019-04-16T21:35:31.879Z,98.40
2019-04-16T21:38:06.194Z,98.40
2019-04-16T21:40:35.261Z,98.40
2019-04-16T21:43:07.976Z,98.40
2019-04-16T21:45:34.786Z,98.40
2019-04-16T21:48:03.709Z,98.80
2019-04-16T21:50:32.414Z,98.60
2019-04-16T21:53:01.284Z,98.60
2019-04-16T21:55:32.844Z,98.70
2019-04-16T21:58:01.096Z,98.80
2019-04-16T22:00:37.910Z,98.80
2019-04-16T22:03:14.294Z,98.80
2019-04-16T22:05:48.097Z,98.90
2019-04-16T22:08:13.338Z,99.10
2019-04-16T22:10:42.017Z,99.40
2019-04-16T22:13:11.001Z,99.70
2019-04-16T22:15:39.842Z,99.90
2019-04-16T22:18:09.913Z,99.90
2019-04-16T22:20:38.802Z,99.90
2019-04-16T22:23:07.797Z,99.90
2019-04-16T22:25:36.524Z,99.90
2019-04-16T22:28:05.481Z,99.90
2019-04-16T22:30:34.158Z,99.90
2019-04-16T22:33:06.415Z,99.90
2019-04-16T22:35:33.364Z,99.90
2019-04-16T22:38:02.371Z,99.90
2019-04-16T22:40:51.573Z,99.90
2019-04-16T22:43:33.137Z,99.90
2019-04-16T22:46:03.851Z,99.90
2019-04-16T22:48:32.493Z,99.90
2019-04-16T22:51:01.530Z,99.90
2019-04-16T22:53:30.299Z,99.90
2019-04-16T22:55:59.753Z,99.90
2019-04-16T22:58:46.019Z,99.90
2019-04-16T23:01:15.130Z,99.90
2019-04-16T23:03:43.698Z,99.90
2019-04-16T23:06:12.549Z,99.90
2019-04-16T23:08:43.554Z,99.90
2019-04-16T23:11:11.845Z,99.90
2019-04-16T23:13:40.802Z,99.90
2019-04-16T23:16:09.516Z,99.90
2019-04-16T23:18:38.575Z,99.90
2019-04-16T23:21:10.099Z,99.90
2019-04-16T23:23:37.614Z,99.90
2019-04-16T23:26:06.281Z,99.90
2019-04-16T23:28:35.262Z,99.90
2019-04-16T23:31:03.982Z,99.90
2019-04-16T23:33:33.499Z,99.90
2019-04-16T23:36:02.350Z,99.90
2019-04-16T23:38:31.576Z,99.90
2019-04-16T23:41:01.431Z,99.90
2019-04-16T23:43:38.050Z,99.90
2019-04-16T23:46:24.932Z,99.90
2019-04-16T23:48:55.986Z,99.90
2019-04-16T23:51:35.138Z,99.90
2019-04-16T23:54:31.232Z,99.90
2019-04-16T23:57:21.609Z,99.90
2019-04-16T23:59:52.066Z,99.90
